createdAt,value
2019-03-23T00:01:39.076Z,76.37
2019-03-23T00:06:44.517Z,79.70
2019-03-23T00:11:49.851Z,77.83
2019-03-23T00:16:55.052Z,73.40
2019-03-23T00:22:00.265Z,81.00
2019-03-23T00:27:05.561Z,77.57
2019-03-23T00:32:10.805Z,92.15
2019-03-23T00:37:16.017Z,80.47
2019-03-23T00:42:21.553Z,80.10
2019-03-23T00:47:27.264Z,89.03
2019-03-23T00:52:32.515Z,84.03
2019-03-23T00:57:37.855Z,74.53
2019-03-23T01:02:43.182Z,88.93
2019-03-23T01:07:48.564Z,78.30
2019-03-23T01:12:53.993Z,71.43
2019-03-23T01:17:59.358Z,83.67
2019-03-23T01:23:05.708Z,81.23
2019-03-23T01:28:11.028Z,90.43
2019-03-23T01:33:16.319Z,93.87
2019-03-23T01:38:21.665Z,92.12
2019-03-23T01:43:26.900Z,91.03
2019-03-23T01:48:32.163Z,95.00
2019-03-23T01:53:37.356Z,92.27
2019-03-23T01:58:42.550Z,95.43
2019-03-23T02:03:47.759Z,99.97
2019-03-23T02:08:52.981Z,101.60
2019-03-23T02:13:58.232Z,81.53
2019-03-23T02:19:05.293Z,79.72
2019-03-23T02:24:11.530Z,97.07
2019-03-23T02:29:16.735Z,92.50
2019-03-23T02:34:22.903Z,100.27
2019-03-23T02:39:28.188Z,89.43
2019-03-23T02:44:33.482Z,89.93
2019-03-23T02:49:38.697Z,110.40
2019-03-23T02:54:43.953Z,114.63
2019-03-23T02:59:49.180Z,86.73
2019-03-23T03:04:54.418Z,77.17
2019-03-23T03:10:00.825Z,87.83
2019-03-23T03:15:07.124Z,92.43
2019-03-23T03:20:13.000Z,68.20
2019-03-23T03:25:18.302Z,62.50
2019-03-23T03:30:23.497Z,63.30
2019-03-23T03:35:28.987Z,71.83
2019-03-23T03:40:34.214Z,73.13
2019-03-23T03:45:39.533Z,61.87
2019-03-23T03:50:44.756Z,60.80
2019-03-23T03:55:49.990Z,51.00
2019-03-23T04:00:55.305Z,55.40
2019-03-23T04:06:00.759Z,57.20
2019-03-23T04:11:05.984Z,62.53
2019-03-23T04:16:11.245Z,55.73
2019-03-23T04:21:16.451Z,60.88
2019-03-23T04:26:21.772Z,54.97
2019-03-23T04:31:26.982Z,47.57
2019-03-23T04:36:32.221Z,64.47
2019-03-23T04:41:37.550Z,51.87
2019-03-23T04:46:43.994Z,50.20
2019-03-23T04:51:50.624Z,49.10
2019-03-23T04:56:55.852Z,56.13
2019-03-23T05:02:01.343Z,51.37
2019-03-23T05:07:06.544Z,43.83
2019-03-23T05:12:11.834Z,46.70
2019-03-23T05:17:17.098Z,46.23
2019-03-23T05:22:22.331Z,46.50
2019-03-23T05:27:27.677Z,46.47
2019-03-23T05:32:32.888Z,50.03
2019-03-23T05:37:38.155Z,50.13
2019-03-23T05:42:43.387Z,51.40
2019-03-23T05:47:48.655Z,45.87
2019-03-23T05:52:54.028Z,44.63
2019-03-23T05:57:59.459Z,51.27
2019-03-23T06:03:05.113Z,45.03
2019-03-23T06:08:10.673Z,50.47
2019-03-23T06:13:16.124Z,51.88
2019-03-23T06:18:21.631Z,62.80
2019-03-23T06:23:26.918Z,59.70
2019-03-23T06:28:32.139Z,51.50
2019-03-23T06:33:37.559Z,50.67
2019-03-23T06:38:42.992Z,51.00
2019-03-23T06:43:48.481Z,47.73
2019-03-23T06:48:53.895Z,45.83
2019-03-23T06:53:59.337Z,55.35
2019-03-23T06:59:06.871Z,51.67
2019-03-23T07:04:12.487Z,59.33
2019-03-23T07:09:17.867Z,57.13
2019-03-23T07:14:23.302Z,56.93
2019-03-23T07:19:28.810Z,60.07
2019-03-23T07:24:34.224Z,63.60
2019-03-23T07:29:39.614Z,58.00
2019-03-23T07:34:45.017Z,55.53
2019-03-23T07:39:50.752Z,54.10
2019-03-23T07:44:56.236Z,60.90
2019-03-23T07:50:01.745Z,62.43
2019-03-23T07:55:12.020Z,58.37
2019-03-23T08:00:19.271Z,62.98
2019-03-23T08:05:25.524Z,63.93
2019-03-23T08:10:32.544Z,61.80
2019-03-23T08:15:37.778Z,69.53
2019-03-23T08:20:43.006Z,62.43
2019-03-23T08:25:48.241Z,66.27
2019-03-23T08:30:53.464Z,68.07
2019-03-23T08:35:58.673Z,65.03
2019-03-23T08:41:03.908Z,67.00
2019-03-23T08:46:09.145Z,67.82
2019-03-23T08:51:14.738Z,67.82
2019-03-23T08:56:19.971Z,67.47
2019-03-23T09:01:25.168Z,69.92
2019-03-23T09:06:30.382Z,60.10
2019-03-23T09:11:35.972Z,60.48
2019-03-23T09:16:41.251Z,66.60
2019-03-23T09:21:46.513Z,59.55
2019-03-23T09:26:51.708Z,60.45
2019-03-23T09:31:57.896Z,57.30
2019-03-23T09:37:03.115Z,59.10
2019-03-23T09:42:08.615Z,54.88
2019-03-23T09:47:13.811Z,58.13
2019-03-23T09:52:19.307Z,57.17
2019-03-23T09:57:24.587Z,55.45
2019-03-23T10:02:29.824Z,56.85
2019-03-23T10:07:35.054Z,56.20
2019-03-23T10:12:40.356Z,47.20
2019-03-23T10:17:45.607Z,54.55
2019-03-23T10:22:50.886Z,50.12
2019-03-23T10:27:56.094Z,54.45
2019-03-23T10:33:01.406Z,51.25
2019-03-23T10:38:06.614Z,52.53
2019-03-23T10:43:12.060Z,45.00
2019-03-23T10:48:17.463Z,48.42
2019-03-23T10:53:23.365Z,49.48
2019-03-23T10:58:28.882Z,52.73
2019-03-23T11:03:35.075Z,49.93
2019-03-23T11:08:40.344Z,57.20
2019-03-23T11:13:45.558Z,58.20
2019-03-23T11:18:50.816Z,63.17
2019-03-23T11:23:57.099Z,61.20
2019-03-23T11:29:15.187Z,57.73
2019-03-23T11:34:20.741Z,63.30
2019-03-23T11:39:26.049Z,67.92
2019-03-23T11:44:31.430Z,71.15
2019-03-23T11:49:37.885Z,64.32
2019-03-23T11:54:43.168Z,68.37
2019-03-23T11:59:48.444Z,72.70
2019-03-23T12:04:53.676Z,77.08
2019-03-23T12:09:58.898Z,73.33
2019-03-23T12:15:04.562Z,76.75
2019-03-23T12:20:10.414Z,74.12
2019-03-23T12:25:17.296Z,70.97
2019-03-23T12:30:23.608Z,66.90
2019-03-23T12:35:28.903Z,64.95
2019-03-23T12:40:36.395Z,74.87
2019-03-23T12:45:41.281Z,71.20
2019-03-23T12:50:46.559Z,66.45
2019-03-23T12:55:51.958Z,54.20
2019-03-23T13:00:57.610Z,62.67
2019-03-23T13:06:02.878Z,65.92
2019-03-23T13:11:08.224Z,75.75
2019-03-23T13:16:13.546Z,64.05
2019-03-23T13:21:18.959Z,71.62
2019-03-23T13:26:24.305Z,73.07
2019-03-23T13:31:29.562Z,66.53
2019-03-23T13:36:34.842Z,65.08
2019-03-23T13:41:50.056Z,59.30
2019-03-23T13:46:55.369Z,54.90
2019-03-23T13:52:01.851Z,56.85
2019-03-23T13:57:08.399Z,61.35
2019-03-23T14:02:13.649Z,59.25
2019-03-23T14:07:18.914Z,54.75
2019-03-23T14:12:24.566Z,59.40
2019-03-23T14:17:30.894Z,52.75
2019-03-23T14:22:36.168Z,49.73
2019-03-23T14:27:41.524Z,49.30
2019-03-23T14:32:47.141Z,55.67
2019-03-23T14:37:53.452Z,51.68
2019-03-23T14:42:58.910Z,53.15
2019-03-23T14:48:05.174Z,46.40
2019-03-23T14:53:10.702Z,50.50
2019-03-23T14:58:16.211Z,49.25
2019-03-23T15:03:22.596Z,49.38
2019-03-23T15:08:28.205Z,52.88
2019-03-23T15:13:33.693Z,46.20
2019-03-23T15:18:39.111Z,51.08
2019-03-23T15:23:44.535Z,51.58
2019-03-23T15:28:50.001Z,49.53
2019-03-23T15:33:55.425Z,50.63
2019-03-23T15:39:06.912Z,51.53
2019-03-23T15:44:14.967Z,49.33
2019-03-23T15:49:24.347Z,50.23
2019-03-23T15:54:30.742Z,47.90
2019-03-23T15:59:39.632Z,45.43
2019-03-23T16:04:50.437Z,49.65
2019-03-23T16:09:58.489Z,45.70
2019-03-23T16:15:09.586Z,42.98
2019-03-23T16:20:18.217Z,40.43
2019-03-23T16:25:28.067Z,44.23
2019-03-23T16:30:34.602Z,39.60
2019-03-23T16:35:40.115Z,36.60
2019-03-23T16:40:45.607Z,44.53
2019-03-23T16:45:51.561Z,41.68
2019-03-23T16:50:57.109Z,38.92
2019-03-23T16:56:02.558Z,39.63
2019-03-23T17:01:07.995Z,37.45
2019-03-23T17:06:13.384Z,34.63
2019-03-23T17:11:19.802Z,33.38
2019-03-23T17:16:25.498Z,31.15
2019-03-23T17:21:30.982Z,29.95
2019-03-23T17:26:36.407Z,24.27
2019-03-23T17:31:41.898Z,26.27
2019-03-23T17:36:47.438Z,26.90
2019-03-23T17:41:53.050Z,36.75
2019-03-23T17:46:58.636Z,28.45
2019-03-23T17:52:06.106Z,32.65
2019-03-23T17:57:12.484Z,27.20
2019-03-23T18:02:18.552Z,29.13
2019-03-23T18:07:24.640Z,28.90
2019-03-23T18:12:30.448Z,24.15
2019-03-23T18:17:35.886Z,20.88
2019-03-23T18:22:41.323Z,21.85
2019-03-23T18:27:47.344Z,21.45
2019-03-23T18:32:52.774Z,23.77
2019-03-23T18:37:58.703Z,22.77
2019-03-23T18:43:05.532Z,21.60
2019-03-23T18:48:10.960Z,26.27
2019-03-23T18:53:16.519Z,21.55
2019-03-23T18:58:21.943Z,31.82
2019-03-23T19:03:27.360Z,36.73
2019-03-23T19:08:32.810Z,33.95
2019-03-23T19:13:38.375Z,35.17
2019-03-23T19:18:43.792Z,39.03
2019-03-23T19:23:49.373Z,38.53
2019-03-23T19:28:54.775Z,41.73
2019-03-23T19:34:00.484Z,40.75
2019-03-23T19:39:08.925Z,43.80
2019-03-23T19:44:14.380Z,50.57
2019-03-23T19:49:19.821Z,48.78
2019-03-23T19:54:26.195Z,53.38
2019-03-23T19:59:31.619Z,53.95
2019-03-23T20:04:37.156Z,55.92
2019-03-23T20:09:42.575Z,58.85
2019-03-23T20:14:49.605Z,61.28
2019-03-23T20:19:55.099Z,57.78
2019-03-23T20:25:01.657Z,59.10
2019-03-23T20:30:08.132Z,58.52
2019-03-23T20:35:14.054Z,58.10
2019-03-23T20:40:19.563Z,56.35
2019-03-23T20:45:29.479Z,63.20
2019-03-23T20:50:35.679Z,54.83
2019-03-23T20:55:41.141Z,47.73
2019-03-23T21:00:46.559Z,48.13
2019-03-23T21:05:52.002Z,47.30
2019-03-23T21:10:57.496Z,50.55
2019-03-23T21:16:02.933Z,48.80
2019-03-23T21:21:08.519Z,44.55
2019-03-23T21:26:14.251Z,51.77
2019-03-23T21:31:19.761Z,49.95
2019-03-23T21:36:25.259Z,51.83
2019-03-23T21:41:30.813Z,50.38
2019-03-23T21:46:36.353Z,55.25
2019-03-23T21:51:41.787Z,47.95
2019-03-23T21:56:47.632Z,48.08
2019-03-23T22:01:53.170Z,50.45
2019-03-23T22:07:01.226Z,45.58
2019-03-23T22:12:06.683Z,41.88
2019-03-23T22:17:12.150Z,48.20
2019-03-23T22:22:17.702Z,40.98
2019-03-23T22:27:23.212Z,50.73
2019-03-23T22:32:28.712Z,50.58
2019-03-23T22:37:34.163Z,48.45
2019-03-23T22:42:39.671Z,55.17
2019-03-23T22:47:45.468Z,54.13
2019-03-23T22:52:50.946Z,61.30
2019-03-23T22:57:56.618Z,54.50
2019-03-23T23:03:02.595Z,66.95
2019-03-23T23:08:08.182Z,60.60
2019-03-23T23:13:13.650Z,60.95
2019-03-23T23:18:19.191Z,60.90
2019-03-23T23:23:24.673Z,62.83
2019-03-23T23:28:30.612Z,65.53
2019-03-23T23:33:36.047Z,62.58
2019-03-23T23:38:41.563Z,65.80
2019-03-23T23:43:46.947Z,61.17
2019-03-23T23:48:52.777Z,70.70
2019-03-23T23:53:58.083Z,67.10
2019-03-23T23:59:03.601Z,57.90
